Time;durP1;ratioP1;P1;durP2;ratioP2;P2;SDS_P1;SDS_P2;PMS_P1;PMS_P2;Temp;Humidity;BMP_temperature;BMP_pressure;BME280_temperature;BME280_humidity;BME280_pressure;Samples;Min_cycle;Max_cycle;Signal;HPM_P1;HPM_P2
2023/08/03 00:00:30;;;;;;;6.57;2.23;;;19.50;94.30;;;;;;5056437;28;20442;-68
2023/08/03 00:02:58;;;;;;;4.47;1.77;;;19.40;94.20;;;;;;5056438;28;20439;-68
2023/08/03 00:05:25;;;;;;;2.70;1.20;;;19.50;94.40;;;;;;5056253;28;20458;-67
2023/08/03 00:07:54;;;;;;;5.50;3.07;;;19.40;94.70;;;;;;5056263;28;20442;-68
2023/08/03 00:10:25;;;;;;;6.00;1.77;;;19.40;94.80;;;;;;5056124;28;20466;-68
2023/08/03 00:12:53;;;;;;;3.63;1.60;;;19.40;95.10;;;;;;5056659;28;20434;-68
2023/08/03 00:15:21;;;;;;;6.07;2.00;;;19.40;94.80;;;;;;5055929;28;20438;-68
2023/08/03 00:17:49;;;;;;;5.33;2.03;;;19.30;94.80;;;;;;5056139;28;20894;-67
2023/08/03 00:20:18;;;;;;;3.37;1.80;;;19.40;94.80;;;;;;5056391;28;20544;-68
2023/08/03 00:22:46;;;;;;;5.53;1.80;;;19.40;94.80;;;;;;5056418;28;20528;-67
2023/08/03 00:25:15;;;;;;;5.60;1.67;;;19.50;95.00;;;;;;5055795;28;20524;-68
2023/08/03 00:27:42;;;;;;;2.90;1.40;;;19.50;95.00;;;;;;5056218;28;20469;-67
2023/08/03 00:30:10;;;;;;;6.67;1.93;;;19.60;95.10;;;;;;5055692;28;20786;-67
2023/08/03 00:32:37;;;;;;;2.97;1.40;;;19.50;95.40;;;;;;5055710;28;20442;-68
2023/08/03 00:35:05;;;;;;;4.87;1.47;;;19.60;95.50;;;;;;5055252;28;20498;-67
2023/08/03 00:37:33;;;;;;;5.30;1.40;;;19.60;95.40;;;;;;5055763;28;20993;-68
2023/08/03 00:40:00;;;;;;;3.60;1.60;;;19.60;95.40;;;;;;5056171;28;20816;-67
2023/08/03 00:42:29;;;;;;;4.50;1.33;;;19.60;95.40;;;;;;5056169;28;20565;-67
2023/08/03 00:44:58;;;;;;;4.67;1.90;;;19.60;95.60;;;;;;5055473;28;20504;-68
2023/08/03 00:47:27;;;;;;;6.40;1.80;;;19.70;95.70;;;;;;5055883;28;20446;-68
2023/08/03 00:50:03;;;;;;;5.70;1.77;;;19.70;95.80;;;;;;5055538;28;20430;-69
2023/08/03 00:52:30;;;;;;;4.37;1.93;;;19.70;95.60;;;;;;5055843;28;20463;-68
2023/08/03 00:55:00;;;;;;;4.80;1.60;;;19.70;95.80;;;;;;5055019;28;20522;-68
2023/08/03 00:57:30;;;;;;;6.43;1.30;;;19.70;96.10;;;;;;5054372;28;20445;-68
2023/08/03 01:00:03;;;;;;;6.70;1.37;;;19.70;96.30;;;;;;5055347;28;20493;-69
2023/08/03 01:02:33;;;;;;;3.30;1.33;;;19.70;96.40;;;;;;5055334;28;20423;-68
2023/08/03 01:05:00;;;;;;;2.63;1.30;;;19.70;96.50;;;;;;5055159;28;20489;-68
2023/08/03 01:07:28;;;;;;;4.57;1.40;;;19.70;96.50;;;;;;5055134;28;20440;-68
2023/08/03 01:09:55;;;;;;;4.67;1.30;;;19.70;96.60;;;;;;5055159;28;20518;-68
2023/08/03 01:12:22;;;;;;;7.30;1.77;;;19.70;96.70;;;;;;5055343;28;20474;-69
2023/08/03 01:14:52;;;;;;;2.60;1.30;;;19.70;96.80;;;;;;5054570;28;20443;-68
2023/08/03 01:17:19;;;;;;;4.97;1.50;;;19.70;96.60;;;;;;5035143;28;20976;-68
2023/08/03 01:19:47;;;;;;;5.37;1.93;;;19.70;96.60;;;;;;5035006;28;20446;-68
2023/08/03 01:22:15;;;;;;;3.80;1.50;;;19.70;96.80;;;;;;5034953;28;20522;-68
2023/08/03 01:24:44;;;;;;;7.20;1.60;;;19.70;97.00;;;;;;5035201;28;20490;-69
2023/08/03 01:27:12;;;;;;;5.77;1.70;;;19.70;97.00;;;;;;5054874;28;20437;-68
2023/08/03 01:29:39;;;;;;;2.33;1.03;;;19.70;97.20;;;;;;5055037;28;20496;-68
2023/08/03 01:32:07;;;;;;;3.50;1.03;;;19.70;97.40;;;;;;5055118;28;20474;-68
2023/08/03 01:34:34;;;;;;;3.97;1.33;;;19.60;97.50;;;;;;5055061;28;20855;-68
2023/08/03 01:37:02;;;;;;;3.60;1.37;;;19.60;97.50;;;;;;5053920;28;20442;-68
2023/08/03 01:39:29;;;;;;;3.20;1.70;;;19.60;97.50;;;;;;5055172;28;20435;-68
2023/08/03 01:41:57;;;;;;;3.23;1.67;;;19.60;97.50;;;;;;5054529;28;20921;-68
2023/08/03 01:44:27;;;;;;;3.10;1.33;;;19.60;97.60;;;;;;5054515;28;20432;-68
2023/08/03 01:46:55;;;;;;;5.17;1.57;;;19.60;97.50;;;;;;5054463;28;20914;-68
2023/08/03 01:49:24;;;;;;;4.30;1.30;;;19.60;97.80;;;;;;5054875;28;20442;-68
2023/08/03 01:51:52;;;;;;;2.40;1.30;;;19.60;97.90;;;;;;5054700;28;20872;-68
2023/08/03 01:54:21;;;;;;;5.03;1.60;;;19.50;98.00;;;;;;5054333;28;20431;-68
2023/08/03 01:56:50;;;;;;;4.40;1.50;;;19.60;98.30;;;;;;5055068;28;20774;-68
2023/08/03 01:59:19;;;;;;;3.30;1.20;;;19.60;98.50;;;;;;5054168;28;20430;-68
2023/08/03 02:01:46;;;;;;;5.07;1.07;;;19.50;98.50;;;;;;5054189;28;20442;-68
2023/08/03 02:04:14;;;;;;;3.63;1.83;;;19.60;98.60;;;;;;5054182;28;20443;-68
2023/08/03 02:06:41;;;;;;;3.10;1.53;;;19.50;98.70;;;;;;5053905;28;20443;-68
2023/08/03 02:09:09;;;;;;;2.80;1.13;;;19.50;98.60;;;;;;5053827;28;20974;-68
2023/08/03 02:11:36;;;;;;;3.70;1.17;;;19.60;98.80;;;;;;5054828;28;20478;-69
2023/08/03 02:14:04;;;;;;;4.03;1.37;;;19.50;99.00;;;;;;5054517;28;20465;-68
2023/08/03 02:16:38;;;;;;;4.13;1.73;;;19.50;99.10;;;;;;5053702;28;20933;-68
2023/08/03 02:19:05;;;;;;;3.17;1.30;;;19.50;99.30;;;;;;5054157;28;20427;-68
2023/08/03 02:21:32;;;;;;;3.83;1.57;;;19.50;99.40;;;;;;5054067;28;20443;-68
2023/08/03 02:24:01;;;;;;;2.87;1.40;;;19.50;99.40;;;;;;5053807;28;20427;-68
2023/08/03 02:26:30;;;;;;;2.97;1.47;;;19.50;99.20;;;;;;5053471;28;20526;-69
2023/08/03 02:28:58;;;;;;;3.17;1.90;;;19.50;99.20;;;;;;5054019;28;20486;-68
2023/08/03 02:31:25;;;;;;;4.23;1.30;;;19.50;99.10;;;;;;5052118;28;20470;-68
2023/08/03 02:33:54;;;;;;;2.20;1.20;;;19.50;98.50;;;;;;5053634;28;20532;-70
2023/08/03 02:36:21;;;;;;;7.97;1.67;;;19.40;97.90;;;;;;5053457;28;20442;-68
2023/08/03 02:38:49;;;;;;;2.87;1.60;;;19.50;97.60;;;;;;5053827;28;20438;-68
2023/08/03 02:41:16;;;;;;;4.23;1.47;;;19.40;97.00;;;;;;5053184;28;20926;-68
2023/08/03 02:43:43;;;;;;;3.30;1.50;;;19.40;96.50;;;;;;5053120;28;20494;-68
2023/08/03 02:46:11;;;;;;;4.33;1.60;;;19.40;96.30;;;;;;5053418;28;20430;-68
2023/08/03 02:48:40;;;;;;;4.50;1.93;;;19.40;95.30;;;;;;5053804;28;20431;-68
2023/08/03 02:51:09;;;;;;;3.17;1.30;;;19.40;95.30;;;;;;5053005;28;20813;-68
2023/08/03 02:53:36;;;;;;;2.67;1.10;;;19.20;94.60;;;;;;5052888;28;20435;-68
2023/08/03 02:56:03;;;;;;;8.43;1.83;;;19.30;94.90;;;;;;5053293;28;20454;-68
2023/08/03 02:58:31;;;;;;;2.83;1.73;;;19.30;94.70;;;;;;5053719;28;20447;-68
2023/08/03 03:01:00;;;;;;;3.27;1.33;;;19.30;94.70;;;;;;5053331;28;20866;-68
2023/08/03 03:03:27;;;;;;;6.07;1.60;;;19.20;94.30;;;;;;5052941;28;20439;-68
2023/08/03 03:05:55;;;;;;;4.50;1.40;;;19.20;94.20;;;;;;5053242;28;20438;-69
2023/08/03 03:08:23;;;;;;;2.93;1.67;;;19.20;94.20;;;;;;5053083;28;20426;-68
2023/08/03 03:10:51;;;;;;;3.33;1.50;;;19.20;94.00;;;;;;5052447;28;20980;-68
2023/08/03 03:13:18;;;;;;;2.93;1.10;;;19.10;94.20;;;;;;5053306;28;20470;-68
2023/08/03 03:15:45;;;;;;;3.20;1.50;;;19.10;94.30;;;;;;5053396;28;20529;-68
2023/08/03 03:18:13;;;;;;;2.80;1.63;;;19.10;94.30;;;;;;5053355;28;20453;-68
2023/08/03 03:20:40;;;;;;;3.10;1.70;;;19.10;93.40;;;;;;5052921;28;20452;-68
2023/08/03 03:23:08;;;;;;;3.00;1.43;;;19.00;93.70;;;;;;5053260;28;20438;-68
2023/08/03 03:25:36;;;;;;;3.10;1.50;;;19.00;93.50;;;;;;5052923;28;21003;-68
2023/08/03 03:28:05;;;;;;;2.47;1.47;;;19.00;93.30;;;;;;5052463;28;20446;-69
2023/08/03 03:30:32;;;;;;;3.93;1.43;;;19.00;93.30;;;;;;5052321;28;20831;-68
2023/08/03 03:33:00;;;;;;;2.83;1.43;;;19.00;93.30;;;;;;5053270;28;20477;-68
2023/08/03 03:35:30;;;;;;;3.20;1.10;;;19.00;93.10;;;;;;5053125;28;20439;-68
2023/08/03 03:37:58;;;;;;;4.47;1.60;;;18.90;93.10;;;;;;5053279;28;20548;-68
2023/08/03 03:40:25;;;;;;;7.53;2.07;;;18.90;93.20;;;;;;5052332;28;20439;-68
2023/08/03 03:42:54;;;;;;;3.27;1.40;;;18.90;93.10;;;;;;5052563;28;20446;-68
2023/08/03 03:45:22;;;;;;;3.07;1.43;;;18.90;93.20;;;;;;5053029;28;20438;-68
2023/08/03 03:47:49;;;;;;;4.40;1.73;;;18.90;93.30;;;;;;5053070;28;20522;-68
2023/08/03 03:50:21;;;;;;;4.60;1.80;;;18.90;93.20;;;;;;5052696;28;20525;-68
2023/08/03 03:52:49;;;;;;;2.73;1.57;;;18.80;93.20;;;;;;5052903;28;20462;-68
2023/08/03 03:55:16;;;;;;;3.60;1.63;;;18.80;93.00;;;;;;5053170;28;20438;-68
2023/08/03 03:57:44;;;;;;;5.43;1.27;;;18.80;93.00;;;;;;5052670;28;20438;-68
2023/08/03 04:00:13;;;;;;;3.47;1.80;;;18.70;92.70;;;;;;5052761;28;20433;-68
2023/08/03 04:02:40;;;;;;;3.20;1.30;;;18.70;92.50;;;;;;5052974;28;20789;-68
2023/08/03 04:05:08;;;;;;;5.00;1.50;;;18.80;91.90;;;;;;5052930;28;20456;-68
2023/08/03 04:07:37;;;;;;;4.17;1.50;;;18.60;91.80;;;;;;5056211;28;20433;-68
2023/08/03 04:10:05;;;;;;;5.27;1.90;;;18.60;92.30;;;;;;5055826;28;20469;-68
2023/08/03 04:12:34;;;;;;;4.40;2.00;;;18.50;92.40;;;;;;5056500;28;20484;-68
2023/08/03 04:15:01;;;;;;;5.90;1.70;;;18.60;92.50;;;;;;5056539;28;20448;-68
2023/08/03 04:17:30;;;;;;;4.47;1.60;;;18.40;91.90;;;;;;5056242;28;20483;-68
2023/08/03 04:20:00;;;;;;;4.07;1.50;;;18.40;92.30;;;;;;5055997;28;20456;-69
2023/08/03 04:22:28;;;;;;;4.33;1.60;;;18.40;92.00;;;;;;5056087;28;20507;-68
2023/08/03 04:25:01;;;;;;;5.03;2.40;;;18.40;92.30;;;;;;5056568;28;21249;-68
2023/08/03 04:27:28;;;;;;;3.53;2.17;;;18.40;91.70;;;;;;5056254;28;20962;-68
2023/08/03 04:29:55;;;;;;;6.63;1.40;;;18.40;92.10;;;;;;5055977;28;21014;-69
2023/08/03 04:32:23;;;;;;;4.40;2.13;;;18.40;92.40;;;;;;5056179;28;20521;-68
2023/08/03 04:34:51;;;;;;;5.77;1.70;;;18.40;92.20;;;;;;5056145;28;20434;-70
2023/08/03 04:37:20;;;;;;;5.10;1.90;;;18.40;92.30;;;;;;5056187;28;20434;-68
2023/08/03 04:39:49;;;;;;;5.63;2.17;;;18.40;92.30;;;;;;5056137;28;20496;-68
2023/08/03 04:42:16;;;;;;;6.03;2.40;;;18.50;92.20;;;;;;5054599;28;20492;-68
2023/08/03 04:44:44;;;;;;;4.47;2.07;;;18.50;92.30;;;;;;5055417;28;20466;-68
2023/08/03 04:47:11;;;;;;;7.47;1.67;;;18.50;92.20;;;;;;5055732;28;20434;-68
2023/08/03 04:49:39;;;;;;;10.80;2.30;;;18.50;92.30;;;;;;5056070;28;20835;-68
2023/08/03 04:52:08;;;;;;;5.40;1.50;;;18.60;92.10;;;;;;5055155;28;20470;-68
2023/08/03 04:54:36;;;;;;;4.73;1.47;;;18.60;92.00;;;;;;5055588;28;20929;-68
2023/08/03 04:57:04;;;;;;;8.13;2.50;;;18.60;92.30;;;;;;5055595;28;20470;-69
2023/08/03 04:59:33;;;;;;;6.50;3.23;;;18.60;91.70;;;;;;5055465;28;20446;-68
2023/08/03 05:02:00;;;;;;;6.50;2.73;;;18.60;91.50;;;;;;5052581;28;20441;-69
2023/08/03 05:04:28;;;;;;;5.00;1.90;;;18.60;91.70;;;;;;5054823;28;20480;-68
2023/08/03 05:06:55;;;;;;;6.53;2.40;;;18.60;91.00;;;;;;5055592;28;20445;-68
2023/08/03 05:09:24;;;;;;;5.97;2.23;;;18.60;90.90;;;;;;5055290;28;20435;-69
2023/08/03 05:11:51;;;;;;;7.70;2.30;;;18.70;91.20;;;;;;5055135;28;20487;-68
2023/08/03 05:14:18;;;;;;;6.47;2.17;;;18.70;91.40;;;;;;5054868;28;20945;-68
2023/08/03 05:16:46;;;;;;;7.13;1.97;;;18.70;91.50;;;;;;5053313;28;20438;-68
2023/08/03 05:19:14;;;;;;;4.23;1.47;;;18.80;91.30;;;;;;5055420;28;20481;-68
2023/08/03 05:21:43;;;;;;;7.07;2.70;;;18.80;90.70;;;;;;5054971;28;20434;-68
2023/08/03 05:24:10;;;;;;;7.17;2.20;;;18.80;90.90;;;;;;5054758;28;20438;-68
2023/08/03 05:26:39;;;;;;;4.00;1.63;;;18.90;90.80;;;;;;5055243;28;20583;-68
2023/08/03 05:29:10;;;;;;;4.77;1.87;;;18.80;90.20;;;;;;5055208;28;20435;-68
2023/08/03 05:31:37;;;;;;;4.57;1.77;;;18.80;90.10;;;;;;5054501;28;20517;-68
2023/08/03 05:34:05;;;;;;;10.53;2.60;;;18.90;90.00;;;;;;5052602;28;20482;-69
2023/08/03 05:36:32;;;;;;;4.57;1.73;;;18.90;88.40;;;;;;5054275;28;20510;-68
2023/08/03 05:38:59;;;;;;;6.90;2.10;;;18.80;87.40;;;;;;5054462;28;20439;-68
2023/08/03 05:41:27;;;;;;;6.30;1.77;;;18.90;89.10;;;;;;5053711;28;20534;-70
2023/08/03 05:43:57;;;;;;;9.00;1.80;;;19.00;89.80;;;;;;5054379;28;20870;-68
2023/08/03 05:46:33;;;;;;;5.50;2.23;;;19.10;89.20;;;;;;5053874;28;20496;-68
2023/08/03 05:49:01;;;;;;;6.83;1.43;;;19.10;89.10;;;;;;5054107;28;20755;-69
2023/08/03 05:51:30;;;;;;;6.37;2.03;;;19.10;88.80;;;;;;5053543;28;20445;-68
2023/08/03 05:53:58;;;;;;;6.13;1.97;;;19.10;88.30;;;;;;5053332;28;21007;-68
2023/08/03 05:56:29;;;;;;;4.30;1.90;;;19.10;88.40;;;;;;5054194;28;20837;-69
2023/08/03 05:59:00;;;;;;;8.40;2.07;;;19.20;88.40;;;;;;5053460;28;20428;-68
2023/08/03 06:01:31;;;;;;;5.03;2.00;;;19.20;88.40;;;;;;5053745;28;20810;-68
2023/08/03 06:03:59;;;;;;;7.47;2.20;;;19.20;88.30;;;;;;5053814;28;20827;-68
2023/08/03 06:06:26;;;;;;;5.00;1.60;;;19.20;87.70;;;;;;5049298;28;20430;-68
2023/08/03 06:08:55;;;;;;;4.67;1.40;;;19.20;86.90;;;;;;5041105;28;20442;-68
2023/08/03 06:11:22;;;;;;;6.70;1.80;;;19.20;86.30;;;;;;5052957;28;20470;-68
2023/08/03 06:13:49;;;;;;;5.97;1.87;;;19.10;86.00;;;;;;5050713;28;20490;-68
2023/08/03 06:16:18;;;;;;;9.70;2.30;;;19.10;87.10;;;;;;5052713;28;20438;-70
2023/08/03 06:18:52;;;;;;;5.80;1.93;;;19.10;87.10;;;;;;5044835;28;20434;-71
2023/08/03 06:21:20;;;;;;;7.77;2.57;;;19.20;86.70;;;;;;5052667;28;20887;-68
2023/08/03 06:23:49;;;;;;;5.97;2.97;;;19.20;85.10;;;;;;5048330;28;20494;-68
2023/08/03 06:26:19;;;;;;;8.20;2.60;;;19.10;85.60;;;;;;5052727;28;20439;-69
2023/08/03 06:28:49;;;;;;;4.47;1.57;;;19.10;86.00;;;;;;5049373;28;20454;-69
2023/08/03 06:31:23;;;;;;;8.73;2.00;;;19.20;85.90;;;;;;5049213;28;20462;-68
2023/08/03 06:33:50;;;;;;;5.00;2.50;;;19.20;85.00;;;;;;5050940;28;20469;-69
2023/08/03 06:36:20;;;;;;;5.20;1.33;;;19.20;84.00;;;;;;5052844;28;20464;-69
2023/08/03 06:38:48;;;;;;;4.37;1.73;;;19.20;83.90;;;;;;5049874;28;20995;-68
2023/08/03 06:41:15;;;;;;;5.23;1.40;;;19.20;84.40;;;;;;5048211;28;20513;-74
2023/08/03 06:43:44;;;;;;;6.07;2.60;;;19.20;82.00;;;;;;5049655;28;20524;-70
2023/08/03 06:46:11;;;;;;;6.83;2.20;;;19.10;83.00;;;;;;5051799;28;20442;-68
2023/08/03 06:48:40;;;;;;;5.67;2.03;;;19.20;83.40;;;;;;5049758;28;20442;-68
2023/08/03 06:51:07;;;;;;;5.83;2.30;;;19.20;83.30;;;;;;5052964;28;20438;-69
2023/08/03 06:53:35;;;;;;;5.50;1.87;;;19.20;82.20;;;;;;5052711;28;20462;-68
2023/08/03 06:56:04;;;;;;;4.80;1.93;;;19.30;83.00;;;;;;5052758;28;20930;-68
2023/08/03 06:58:32;;;;;;;4.50;2.00;;;19.30;82.00;;;;;;5052656;28;20434;-69
2023/08/03 07:01:00;;;;;;;6.30;1.40;;;19.40;81.60;;;;;;5053381;28;20427;-68
2023/08/03 07:03:30;;;;;;;5.93;2.17;;;19.40;81.00;;;;;;5053096;28;20921;-69
2023/08/03 07:06:01;;;;;;;5.07;1.43;;;19.50;81.60;;;;;;5053248;28;20488;-68
2023/08/03 07:08:32;;;;;;;5.83;1.90;;;19.50;75.60;;;;;;5053231;28;20925;-68
2023/08/03 07:11:01;;;;;;;4.20;1.40;;;19.50;74.40;;;;;;5053413;28;20523;-68
2023/08/03 07:13:28;;;;;;;3.23;1.40;;;19.50;77.00;;;;;;5052986;28;20521;-68
2023/08/03 07:15:56;;;;;;;4.03;1.80;;;19.70;79.10;;;;;;5053014;28;20439;-68
2023/08/03 07:18:26;;;;;;;4.40;1.80;;;19.80;76.30;;;;;;5052971;28;20955;-69
2023/08/03 07:20:53;;;;;;;4.20;1.20;;;19.90;75.00;;;;;;5050123;28;20530;-69
2023/08/03 07:23:22;;;;;;;4.20;1.57;;;20.00;74.40;;;;;;5052234;28;20436;-68
2023/08/03 07:25:49;;;;;;;3.47;1.50;;;20.10;75.20;;;;;;5051428;28;20827;-68
2023/08/03 07:28:16;;;;;;;4.37;1.30;;;20.30;75.80;;;;;;5052569;28;20447;-68
2023/08/03 07:30:49;;;;;;;4.93;2.00;;;20.40;72.60;;;;;;5052912;28;20447;-69
2023/08/03 07:33:17;;;;;;;8.43;1.70;;;20.50;72.50;;;;;;5052942;28;20496;-69
2023/08/03 07:35:47;;;;;;;3.80;1.30;;;20.70;69.70;;;;;;5052830;28;20841;-68
2023/08/03 07:38:14;;;;;;;5.37;1.93;;;20.70;69.70;;;;;;5053315;28;20439;-68
2023/08/03 07:40:43;;;;;;;4.93;1.37;;;20.80;65.10;;;;;;5055543;28;20449;-68
2023/08/03 07:43:10;;;;;;;4.40;1.00;;;20.80;63.20;;;;;;5056861;28;20478;-68
2023/08/03 07:45:39;;;;;;;2.40;1.30;;;20.80;65.20;;;;;;5056266;28;20439;-68
2023/08/03 07:48:07;;;;;;;4.30;1.13;;;20.90;65.50;;;;;;5054820;28;20446;-68
2023/08/03 07:50:34;;;;;;;4.17;1.00;;;21.10;67.30;;;;;;5055506;28;20440;-69
2023/08/03 07:53:01;;;;;;;3.00;0.90;;;21.20;65.80;;;;;;5055694;28;20998;-68
2023/08/03 07:55:29;;;;;;;2.20;0.97;;;21.30;61.10;;;;;;5056222;28;20922;-68
2023/08/03 07:57:57;;;;;;;2.40;1.03;;;21.40;63.10;;;;;;5056175;28;20451;-69
2023/08/03 08:00:26;;;;;;;3.47;1.20;;;21.50;60.90;;;;;;5055577;28;20881;-69
2023/08/03 08:02:53;;;;;;;3.53;1.40;;;21.50;60.30;;;;;;5056203;28;20839;-68
2023/08/03 08:05:23;;;;;;;5.43;1.30;;;21.60;60.10;;;;;;5039024;28;20802;-70
2023/08/03 08:07:50;;;;;;;5.23;1.43;;;21.70;58.60;;;;;;5055216;28;20955;-68
2023/08/03 08:10:17;;;;;;;3.07;1.13;;;21.80;61.40;;;;;;5056493;28;20492;-68
2023/08/03 08:12:44;;;;;;;3.17;1.30;;;22.00;61.20;;;;;;5056359;28;20431;-69
2023/08/03 08:15:13;;;;;;;5.00;1.20;;;22.10;58.20;;;;;;5056923;28;20439;-69
2023/08/03 08:17:41;;;;;;;4.40;1.30;;;22.20;57.30;;;;;;5056051;28;20798;-69
2023/08/03 08:20:09;;;;;;;6.00;1.20;;;22.40;58.60;;;;;;5055651;28;20492;-68
2023/08/03 08:22:36;;;;;;;5.00;1.33;;;22.50;57.10;;;;;;5056290;28;20501;-68
2023/08/03 08:25:03;;;;;;;5.57;0.97;;;22.60;59.00;;;;;;5055574;28;20843;-68
2023/08/03 08:27:31;;;;;;;3.47;1.30;;;22.60;56.10;;;;;;5055957;28;20470;-72
2023/08/03 08:30:00;;;;;;;5.93;1.03;;;22.60;56.90;;;;;;5055918;28;20520;-68
2023/08/03 08:32:28;;;;;;;6.60;1.53;;;22.60;56.20;;;;;;5055202;28;20426;-68
2023/08/03 08:34:55;;;;;;;4.97;0.90;;;22.70;58.60;;;;;;5054900;28;20490;-68
2023/08/03 08:37:22;;;;;;;3.60;0.90;;;22.90;58.30;;;;;;5055113;28;20951;-68
2023/08/03 08:39:54;;;;;;;3.70;1.03;;;23.10;57.80;;;;;;5055099;28;20465;-68
2023/08/03 08:42:25;;;;;;;3.07;1.17;;;23.20;56.70;;;;;;5054935;28;20543;-69
2023/08/03 08:44:52;;;;;;;3.57;1.40;;;23.30;56.90;;;;;;5052535;28;20525;-68
2023/08/03 08:47:19;;;;;;;3.93;1.53;;;23.40;57.00;;;;;;5055583;28;20891;-68
2023/08/03 08:49:49;;;;;;;3.40;0.90;;;23.50;57.00;;;;;;5055598;28;20473;-68
2023/08/03 08:52:18;;;;;;;4.27;1.33;;;23.60;55.00;;;;;;5051811;28;20445;-68
2023/08/03 08:54:45;;;;;;;4.13;1.00;;;23.60;55.60;;;;;;5054668;28;20505;-69
2023/08/03 08:57:12;;;;;;;3.90;1.20;;;23.70;55.80;;;;;;5054950;28;20500;-68
2023/08/03 08:59:58;;;;;;;3.27;0.90;;;23.80;55.40;;;;;;5054185;28;20445;-68
2023/08/03 09:02:26;;;;;;;4.37;1.20;;;23.90;55.20;;;;;;5054521;28;20421;-69
2023/08/03 09:04:55;;;;;;;2.23;0.80;;;24.00;54.10;;;;;;5054790;28;21010;-68
2023/08/03 09:07:21;;;;;;;6.63;1.37;;;24.10;54.50;;;;;;5054387;28;20504;-68
2023/08/03 09:09:49;;;;;;;3.93;1.03;;;24.10;54.40;;;;;;5054343;28;20558;-68
2023/08/03 09:12:25;;;;;;;1.87;0.70;;;24.10;53.20;;;;;;5054500;28;20433;-69
2023/08/03 09:14:53;;;;;;;5.10;1.50;;;24.20;53.50;;;;;;5054642;28;20468;-68
2023/08/03 09:17:22;;;;;;;3.50;1.40;;;24.30;54.10;;;;;;5054924;28;20433;-69
2023/08/03 09:19:50;;;;;;;5.27;1.33;;;24.50;53.50;;;;;;5053057;28;20437;-70
2023/08/03 09:22:23;;;;;;;5.53;1.43;;;24.60;52.20;;;;;;5053692;28;20836;-69
2023/08/03 09:25:01;;;;;;;4.23;1.50;;;24.80;53.00;;;;;;5052990;28;20513;-69
2023/08/03 09:27:28;;;;;;;2.97;1.20;;;24.90;52.80;;;;;;5054689;28;20442;-68
2023/08/03 09:30:00;;;;;;;4.00;2.07;;;25.00;50.70;;;;;;5054314;28;20442;-68
2023/08/03 09:32:34;;;;;;;2.57;0.90;;;25.10;52.40;;;;;;5054912;28;20459;-69
2023/08/03 09:35:01;;;;;;;3.40;1.00;;;25.20;52.30;;;;;;5054842;28;20559;-70
2023/08/03 09:37:39;;;;;;;3.97;1.20;;;25.30;51.60;;;;;;5054389;28;20483;-68
2023/08/03 09:40:07;;;;;;;3.67;1.60;;;25.30;49.20;;;;;;5055105;28;20604;-68
2023/08/03 09:42:40;;;;;;;3.20;0.90;;;25.20;48.50;;;;;;5054558;28;20437;-69
2023/08/03 09:45:09;;;;;;;3.97;1.20;;;25.10;48.40;;;;;;5054053;28;20457;-68
2023/08/03 09:47:38;;;;;;;4.13;1.67;;;24.90;49.50;;;;;;5054563;28;20441;-68
2023/08/03 09:50:05;;;;;;;3.60;1.20;;;24.80;48.10;;;;;;5054357;28;20517;-69
2023/08/03 09:52:33;;;;;;;5.90;1.40;;;24.70;48.70;;;;;;5054306;28;20932;-68
2023/08/03 09:55:12;;;;;;;4.90;1.13;;;24.50;48.50;;;;;;5054322;28;20565;-68
2023/08/03 09:57:43;;;;;;;2.87;1.07;;;24.40;49.40;;;;;;5054413;28;20508;-68
2023/08/03 10:00:13;;;;;;;4.37;1.30;;;24.30;49.60;;;;;;5054424;28;20425;-68
2023/08/03 10:02:45;;;;;;;3.30;0.90;;;24.10;48.60;;;;;;5054285;28;20780;-68
2023/08/03 10:05:17;;;;;;;2.90;1.10;;;23.90;49.70;;;;;;5053671;28;20517;-68
2023/08/03 10:07:52;;;;;;;2.53;1.17;;;23.90;50.60;;;;;;5053423;28;20498;-68
2023/08/03 10:10:25;;;;;;;2.70;0.90;;;23.90;50.80;;;;;;5053910;28;20479;-68
2023/08/03 10:13:03;;;;;;;3.53;1.00;;;24.00;50.80;;;;;;5054084;28;20483;-68
2023/08/03 10:15:35;;;;;;;4.13;0.97;;;24.00;49.90;;;;;;5054297;28;20548;-68
2023/08/03 10:18:06;;;;;;;6.07;1.30;;;24.00;50.50;;;;;;5053765;28;20469;-68
2023/08/03 10:20:35;;;;;;;3.40;0.87;;;24.00;50.30;;;;;;5054267;28;20453;-70
2023/08/03 10:23:12;;;;;;;3.93;1.40;;;24.00;48.80;;;;;;5053955;28;20438;-68
2023/08/03 10:26:02;;;;;;;2.43;0.90;;;23.90;48.40;;;;;;5053541;28;20836;-68
2023/08/03 10:28:47;;;;;;;3.83;1.00;;;23.80;47.90;;;;;;5048409;28;20536;-68
2023/08/03 10:31:17;;;;;;;2.27;0.80;;;23.60;47.80;;;;;;5046524;28;20472;-68
2023/08/03 10:34:12;;;;;;;2.87;1.17;;;23.50;47.00;;;;;;5052084;28;20465;-68
2023/08/03 10:36:46;;;;;;;4.23;1.07;;;23.40;48.20;;;;;;5052521;28;20919;-73
2023/08/03 10:39:16;;;;;;;2.60;1.20;;;23.20;48.30;;;;;;5034528;28;20427;-68
2023/08/03 10:41:49;;;;;;;3.33;1.10;;;23.30;49.40;;;;;;5051388;28;20507;-67
2023/08/03 10:44:28;;;;;;;10.00;1.10;;;23.30;48.50;;;;;;5053553;28;20980;-68
2023/08/03 10:47:21;;;;;;;2.70;0.90;;;23.30;49.30;;;;;;5047389;28;20433;-69
2023/08/03 10:49:52;;;;;;;3.17;1.10;;;23.20;49.30;;;;;;5052372;28;21006;-68
2023/08/03 10:52:25;;;;;;;3.03;1.20;;;23.10;48.80;;;;;;5052952;28;20426;-68
2023/08/03 10:54:52;;;;;;;3.90;1.17;;;23.00;48.80;;;;;;5052862;28;20508;-68
2023/08/03 10:57:24;;;;;;;3.10;0.93;;;23.10;49.60;;;;;;5052969;28;20430;-70
2023/08/03 10:59:52;;;;;;;4.50;1.23;;;23.10;49.90;;;;;;5053209;28;20426;-69
2023/08/03 11:02:22;;;;;;;2.93;0.93;;;23.20;50.90;;;;;;5052955;28;20935;-69
2023/08/03 11:04:51;;;;;;;3.13;1.17;;;23.20;50.90;;;;;;5053294;28;20437;-68
2023/08/03 11:07:24;;;;;;;3.23;1.20;;;23.40;50.30;;;;;;5053468;28;20441;-68
2023/08/03 11:09:53;;;;;;;3.13;1.10;;;23.50;50.50;;;;;;5053249;28;20561;-68
2023/08/03 11:12:23;;;;;;;3.20;1.03;;;23.50;49.40;;;;;;5053520;28;20519;-67
2023/08/03 11:14:52;;;;;;;3.10;1.40;;;23.50;48.90;;;;;;5053041;28;20461;-67
2023/08/03 11:17:23;;;;;;;2.73;0.80;;;23.50;48.00;;;;;;5053394;28;20458;-68
2023/08/03 11:19:51;;;;;;;3.10;1.30;;;23.40;48.60;;;;;;5053131;28;20971;-68
2023/08/03 11:22:21;;;;;;;3.30;1.33;;;23.40;49.70;;;;;;5052981;28;20495;-67
2023/08/03 11:24:48;;;;;;;3.33;1.10;;;23.50;49.40;;;;;;5053011;28;20441;-72
2023/08/03 11:27:15;;;;;;;4.20;1.20;;;23.50;49.60;;;;;;5053021;28;20483;-68
2023/08/03 11:29:44;;;;;;;2.90;1.13;;;23.50;50.00;;;;;;5053099;28;20521;-68
2023/08/03 11:32:11;;;;;;;4.77;1.33;;;23.60;49.20;;;;;;5053210;28;20517;-68
2023/08/03 11:34:39;;;;;;;3.77;1.33;;;23.60;49.90;;;;;;5052852;28;20556;-67
2023/08/03 11:37:07;;;;;;;4.07;1.03;;;23.70;50.60;;;;;;5053098;28;20436;-68
2023/08/03 11:39:34;;;;;;;2.83;1.03;;;23.70;49.20;;;;;;5052945;28;20425;-68
2023/08/03 11:42:02;;;;;;;4.77;1.20;;;23.70;50.30;;;;;;5053223;28;20429;-69
2023/08/03 11:44:29;;;;;;;3.80;0.90;;;23.80;50.10;;;;;;5053216;28;20491;-68
2023/08/03 11:47:05;;;;;;;3.50;0.97;;;23.90;50.10;;;;;;5052803;28;20521;-68
2023/08/03 11:49:32;;;;;;;3.97;1.30;;;24.10;51.60;;;;;;5053098;28;20433;-67
2023/08/03 11:52:00;;;;;;;5.30;1.57;;;24.20;50.80;;;;;;5052721;28;20951;-67
2023/08/03 11:54:29;;;;;;;3.23;1.13;;;24.40;49.90;;;;;;5052710;28;20913;-68
2023/08/03 11:58:07;;;;;;;7.87;1.30;;;24.40;49.60;;;;;;5052749;28;20461;-68
2023/08/03 11:59:48;;;;;;;6.50;1.37;;;24.30;49.50;;;;;;5052700;28;20573;-68
2023/08/03 12:02:16;;;;;;;3.53;1.30;;;24.30;49.10;;;;;;5052980;28;20433;-68
2023/08/03 12:04:43;;;;;;;4.17;1.00;;;24.40;49.30;;;;;;5052927;28;20477;-67
2023/08/03 12:07:10;;;;;;;3.53;0.90;;;24.30;48.90;;;;;;5052499;28;20936;-68
2023/08/03 12:09:39;;;;;;;3.63;1.20;;;24.20;49.10;;;;;;5052687;28;20493;-68
2023/08/03 12:12:10;;;;;;;2.63;1.00;;;24.20;48.60;;;;;;5052647;28;20916;-67
2023/08/03 12:14:40;;;;;;;4.33;1.27;;;24.10;48.40;;;;;;5052552;28;20955;-68
2023/08/03 12:17:12;;;;;;;3.93;1.00;;;24.10;48.90;;;;;;5052784;28;20869;-68
2023/08/03 12:19:41;;;;;;;4.93;1.37;;;24.10;48.40;;;;;;5052635;28;20512;-68
2023/08/03 12:22:08;;;;;;;4.30;1.70;;;24.20;49.90;;;;;;5052497;28;20851;-69
2023/08/03 12:24:35;;;;;;;7.60;1.17;;;24.10;48.20;;;;;;5052794;28;20527;-68
2023/08/03 12:27:07;;;;;;;5.17;1.03;;;24.10;48.20;;;;;;5053954;28;20434;-68
2023/08/03 12:29:34;;;;;;;3.00;1.10;;;24.10;47.90;;;;;;5056521;28;20509;-67
2023/08/03 12:32:02;;;;;;;3.50;0.90;;;24.00;48.80;;;;;;5056040;28;20429;-68
2023/08/03 12:34:30;;;;;;;2.33;0.90;;;24.00;49.50;;;;;;5056209;28;20469;-67
2023/08/03 12:36:59;;;;;;;2.73;0.90;;;23.90;49.10;;;;;;5056148;28;20528;-67
2023/08/03 12:39:26;;;;;;;2.63;0.90;;;23.90;50.20;;;;;;5055886;28;20440;-68
2023/08/03 12:41:55;;;;;;;5.47;1.17;;;23.80;48.10;;;;;;5056150;28;20515;-68
2023/08/03 12:44:27;;;;;;;1.97;0.70;;;23.80;49.00;;;;;;5056213;28;20830;-68
2023/08/03 12:46:54;;;;;;;2.87;1.10;;;23.80;49.10;;;;;;5056095;28;20446;-68
2023/08/03 12:49:21;;;;;;;3.03;1.03;;;23.80;48.80;;;;;;5055947;28;20502;-68
2023/08/03 12:51:48;;;;;;;3.20;0.97;;;23.90;49.20;;;;;;5055821;28;20532;-68
2023/08/03 12:54:16;;;;;;;3.37;0.80;;;23.90;47.90;;;;;;5055567;28;20468;-68